sensor_id;sensor_type;location;lat;lon;timestamp;pressure;altitude;pressure_sealevel;temperature;humidity
52441;BME280;39611;46.062;8.950;2022-09-09T00:01:08;96192.06;;;18.32;100.00
52441;BME280;39611;46.062;8.950;2022-09-09T00:03:53;96187.50;;;18.33;100.00
52441;BME280;39611;46.062;8.950;2022-09-09T00:06:31;96186.94;;;18.27;100.00
52441;BME280;39611;46.062;8.950;2022-09-09T00:09:12;96190.72;;;18.26;100.00
52441;BME280;39611;46.062;8.950;2022-09-09T00:11:53;96201.09;;;18.28;100.00
52441;BME280;39611;46.062;8.950;2022-09-09T00:15:00;96197.56;;;18.36;100.00
52441;BME280;39611;46.062;8.950;2022-09-09T00:22:55;96185.94;;;18.32;100.00
52441;BME280;39611;46.062;8.950;2022-09-09T00:25:39;96189.50;;;18.24;100.00
52441;BME280;39611;46.062;8.950;2022-09-09T00:28:16;96184.97;;;18.16;100.00
52441;BME280;39611;46.062;8.950;2022-09-09T00:30:44;96184.00;;;18.20;100.00
52441;BME280;39611;46.062;8.950;2022-09-09T00:33:17;96185.22;;;18.23;100.00
52441;BME280;39611;46.062;8.950;2022-09-09T00:35:53;96177.88;;;18.20;100.00
52441;BME280;39611;46.062;8.950;2022-09-09T00:38:49;96171.84;;;18.23;100.00
52441;BME280;39611;46.062;8.950;2022-09-09T00:46:56;96168.59;;;18.17;100.00
52441;BME280;39611;46.062;8.950;2022-09-09T00:49:41;96165.91;;;18.17;100.00
52441;BME280;39611;46.062;8.950;2022-09-09T00:57:50;96155.44;;;17.91;100.00
52441;BME280;39611;46.062;8.950;2022-09-09T01:00:25;96149.16;;;17.87;100.00
52441;BME280;39611;46.062;8.950;2022-09-09T01:09:11;96137.75;;;17.99;100.00
52441;BME280;39611;46.062;8.950;2022-09-09T01:11:59;96142.91;;;18.04;100.00
52441;BME280;39611;46.062;8.950;2022-09-09T01:14:40;96146.56;;;17.99;100.00
52441;BME280;39611;46.062;8.950;2022-09-09T01:17:31;96144.94;;;17.86;100.00
52441;BME280;39611;46.062;8.950;2022-09-09T01:28:19;96143.81;;;17.87;100.00
52441;BME280;39611;46.062;8.950;2022-09-09T01:30:47;96151.41;;;17.85;100.00
52441;BME280;39611;46.062;8.950;2022-09-09T01:33:17;96140.72;;;17.85;100.00
52441;BME280;39611;46.062;8.950;2022-09-09T01:36:10;96142.72;;;17.88;100.00
52441;BME280;39611;46.062;8.950;2022-09-09T01:38:39;96151.53;;;17.88;100.00
52441;BME280;39611;46.062;8.950;2022-09-09T01:41:06;96161.84;;;17.99;100.00
52441;BME280;39611;46.062;8.950;2022-09-09T01:43:32;96176.84;;;17.91;100.00
52441;BME280;39611;46.062;8.950;2022-09-09T01:46:01;96179.97;;;17.93;100.00
52441;BME280;39611;46.062;8.950;2022-09-09T01:48:29;96186.63;;;17.87;100.00
52441;BME280;39611;46.062;8.950;2022-09-09T01:50:56;96170.50;;;17.75;100.00
52441;BME280;39611;46.062;8.950;2022-09-09T01:53:22;96170.50;;;17.75;100.00
52441;BME280;39611;46.062;8.950;2022-09-09T01:59:21;96180.06;;;17.76;100.00
52441;BME280;39611;46.062;8.950;2022-09-09T02:02:09;96179.75;;;17.56;100.00
52441;BME280;39611;46.062;8.950;2022-09-09T02:12:33;96147.91;;;17.63;100.00
52441;BME280;39611;46.062;8.950;2022-09-09T02:15:03;96155.28;;;17.66;100.00
52441;BME280;39611;46.062;8.950;2022-09-09T02:17:36;96144.91;;;17.44;100.00
52441;BME280;39611;46.062;8.950;2022-09-09T02:20:10;96142.22;;;17.44;100.00
52441;BME280;39611;46.062;8.950;2022-09-09T02:22:41;96146.16;;;17.46;100.00
52441;BME280;39611;46.062;8.950;2022-09-09T02:25:13;96159.19;;;17.18;100.00
52441;BME280;39611;46.062;8.950;2022-09-09T02:27:43;96151.19;;;17.18;100.00
52441;BME280;39611;46.062;8.950;2022-09-09T02:30:11;96151.06;;;17.15;100.00
52441;BME280;39611;46.062;8.950;2022-09-09T02:32:39;96149.66;;;17.09;100.00
52441;BME280;39611;46.062;8.950;2022-09-09T02:35:11;96154.16;;;17.17;100.00
52441;BME280;39611;46.062;8.950;2022-09-09T02:37:41;96151.38;;;17.13;100.00
52441;BME280;39611;46.062;8.950;2022-09-09T02:40:10;96127.03;;;17.06;100.00
52441;BME280;39611;46.062;8.950;2022-09-09T02:42:46;96123.31;;;16.98;100.00
52441;BME280;39611;46.062;8.950;2022-09-09T02:45:17;96131.03;;;16.91;100.00
52441;BME280;39611;46.062;8.950;2022-09-09T02:47:50;96126.91;;;17.02;100.00
52441;BME280;39611;46.062;8.950;2022-09-09T02:55:45;96124.97;;;17.12;100.00
52441;BME280;39611;46.062;8.950;2022-09-09T02:58:15;96141.41;;;17.22;100.00
52441;BME280;39611;46.062;8.950;2022-09-09T03:00:48;96137.50;;;17.20;100.00
52441;BME280;39611;46.062;8.950;2022-09-09T03:03:16;96151.69;;;17.12;100.00
52441;BME280;39611;46.062;8.950;2022-09-09T03:05:44;96167.09;;;17.15;100.00
52441;BME280;39611;46.062;8.950;2022-09-09T03:08:11;96199.69;;;16.99;100.00
52441;BME280;39611;46.062;8.950;2022-09-09T03:10:39;96234.78;;;16.89;100.00
52441;BME280;39611;46.062;8.950;2022-09-09T03:13:06;96223.31;;;16.80;100.00
52441;BME280;39611;46.062;8.950;2022-09-09T03:15:32;96218.44;;;16.65;100.00
52441;BME280;39611;46.062;8.950;2022-09-09T03:18:00;96193.47;;;16.69;100.00
52441;BME280;39611;46.062;8.950;2022-09-09T03:20:28;96162.72;;;16.63;100.00
52441;BME280;39611;46.062;8.950;2022-09-09T03:22:55;96137.09;;;16.62;100.00
52441;BME280;39611;46.062;8.950;2022-09-09T03:25:23;96153.63;;;16.55;100.00
52441;BME280;39611;46.062;8.950;2022-09-09T03:27:53;96156.28;;;16.47;100.00
52441;BME280;39611;46.062;8.950;2022-09-09T03:30:22;96156.78;;;16.31;100.00
52441;BME280;39611;46.062;8.950;2022-09-09T03:32:49;96151.16;;;16.33;100.00
52441;BME280;39611;46.062;8.950;2022-09-09T03:35:15;96143.44;;;16.40;100.00
52441;BME280;39611;46.062;8.950;2022-09-09T03:37:42;96153.78;;;16.50;100.00
52441;BME280;39611;46.062;8.950;2022-09-09T03:40:09;96142.53;;;16.27;100.00
52441;BME280;39611;46.062;8.950;2022-09-09T03:42:39;96162.44;;;16.38;100.00
52441;BME280;39611;46.062;8.950;2022-09-09T03:45:08;96158.25;;;15.94;100.00
52441;BME280;39611;46.062;8.950;2022-09-09T03:47:35;96160.47;;;16.09;100.00
52441;BME280;39611;46.062;8.950;2022-09-09T03:50:02;96175.38;;;16.19;100.00
52441;BME280;39611;46.062;8.950;2022-09-09T03:52:30;96176.13;;;16.28;100.00
52441;BME280;39611;46.062;8.950;2022-09-09T03:54:56;96170.94;;;16.23;100.00
52441;BME280;39611;46.062;8.950;2022-09-09T03:57:23;96167.19;;;16.24;100.00
52441;BME280;39611;46.062;8.950;2022-09-09T03:59:49;96178.19;;;16.23;100.00
52441;BME280;39611;46.062;8.950;2022-09-09T04:02:16;96170.78;;;16.28;100.00
52441;BME280;39611;46.062;8.950;2022-09-09T04:04:42;96169.84;;;16.33;100.00
52441;BME280;39611;46.062;8.950;2022-09-09T04:07:09;96176.31;;;16.06;100.00
52441;BME280;39611;46.062;8.950;2022-09-09T04:09:36;96172.19;;;16.34;100.00
52441;BME280;39611;46.062;8.950;2022-09-09T04:12:02;96164.19;;;16.34;100.00
52441;BME280;39611;46.062;8.950;2022-09-09T04:14:29;96162.47;;;16.21;100.00
52441;BME280;39611;46.062;8.950;2022-09-09T04:16:55;96163.56;;;16.29;100.00
52441;BME280;39611;46.062;8.950;2022-09-09T04:19:23;96165.91;;;16.30;100.00
52441;BME280;39611;46.062;8.950;2022-09-09T04:21:50;96159.47;;;16.31;100.00
52441;BME280;39611;46.062;8.950;2022-09-09T04:24:17;96159.47;;;16.31;100.00
52441;BME280;39611;46.062;8.950;2022-09-09T04:26:44;96155.88;;;16.27;100.00
52441;BME280;39611;46.062;8.950;2022-09-09T04:29:11;96159.69;;;15.91;100.00
52441;BME280;39611;46.062;8.950;2022-09-09T04:31:38;96158.25;;;16.11;100.00
52441;BME280;39611;46.062;8.950;2022-09-09T04:34:11;96161.22;;;16.10;100.00
52441;BME280;39611;46.062;8.950;2022-09-09T04:36:37;96160.13;;;16.11;100.00
52441;BME280;39611;46.062;8.950;2022-09-09T04:39:05;96164.22;;;16.08;100.00
52441;BME280;39611;46.062;8.950;2022-09-09T04:41:31;96165.13;;;16.21;100.00
52441;BME280;39611;46.062;8.950;2022-09-09T04:43:58;96163.09;;;16.18;100.00
52441;BME280;39611;46.062;8.950;2022-09-09T04:46:26;96158.88;;;16.17;100.00
52441;BME280;39611;46.062;8.950;2022-09-09T04:48:53;96160.28;;;15.80;100.00
52441;BME280;39611;46.062;8.950;2022-09-09T04:51:20;96155.91;;;16.10;100.00
52441;BME280;39611;46.062;8.950;2022-09-09T04:53:46;96150.69;;;16.13;100.00
52441;BME280;39611;46.062;8.950;2022-09-09T04:56:15;96153.38;;;16.22;100.00
52441;BME280;39611;46.062;8.950;2022-09-09T04:58:42;96158.72;;;16.22;100.00
52441;BME280;39611;46.062;8.950;2022-09-09T05:01:17;96160.47;;;16.09;100.00
52441;BME280;39611;46.062;8.950;2022-09-09T05:03:45;96170.78;;;16.11;100.00
52441;BME280;39611;46.062;8.950;2022-09-09T05:06:19;96163.13;;;16.01;100.00
52441;BME280;39611;46.062;8.950;2022-09-09T05:08:46;96166.28;;;15.94;100.00
52441;BME280;39611;46.062;8.950;2022-09-09T05:11:19;96159.38;;;16.02;100.00
52441;BME280;39611;46.062;8.950;2022-09-09T05:13:46;96164.69;;;16.02;100.00
52441;BME280;39611;46.062;8.950;2022-09-09T05:16:13;96170.66;;;15.99;100.00
52441;BME280;39611;46.062;8.950;2022-09-09T05:18:41;96182.44;;;16.06;100.00
52441;BME280;39611;46.062;8.950;2022-09-09T05:21:10;96188.88;;;16.14;100.00
52441;BME280;39611;46.062;8.950;2022-09-09T05:23:37;96189.66;;;15.97;100.00
52441;BME280;39611;46.062;8.950;2022-09-09T05:26:04;96200.16;;;15.93;100.00
52441;BME280;39611;46.062;8.950;2022-09-09T05:28:34;96203.75;;;15.98;100.00
52441;BME280;39611;46.062;8.950;2022-09-09T05:31:06;96208.47;;;15.92;100.00
52441;BME280;39611;46.062;8.950;2022-09-09T05:33:37;96206.59;;;15.92;100.00
52441;BME280;39611;46.062;8.950;2022-09-09T05:36:11;96208.16;;;16.02;100.00
52441;BME280;39611;46.062;8.950;2022-09-09T05:38:41;96218.38;;;16.17;100.00
52441;BME280;39611;46.062;8.950;2022-09-09T05:41:08;96210.06;;;16.02;100.00
52441;BME280;39611;46.062;8.950;2022-09-09T05:43:37;96213.81;;;16.01;100.00
52441;BME280;39611;46.062;8.950;2022-09-09T05:46:06;96225.44;;;16.05;100.00
52441;BME280;39611;46.062;8.950;2022-09-09T05:48:39;96226.19;;;16.05;100.00
52441;BME280;39611;46.062;8.950;2022-09-09T05:51:08;96230.13;;;16.08;100.00
52441;BME280;39611;46.062;8.950;2022-09-09T05:53:35;96234.84;;;16.11;100.00
52441;BME280;39611;46.062;8.950;2022-09-09T05:58:34;96233.59;;;16.08;100.00
52441;BME280;39611;46.062;8.950;2022-09-09T06:01:18;96237.69;;;16.06;100.00
52441;BME280;39611;46.062;8.950;2022-09-09T06:03:46;96233.91;;;16.07;100.00
52441;BME280;39611;46.062;8.950;2022-09-09T06:06:15;96229.81;;;16.09;100.00
52441;BME280;39611;46.062;8.950;2022-09-09T06:08:44;96229.81;;;16.18;100.00
52441;BME280;39611;46.062;8.950;2022-09-09T06:11:14;96236.59;;;16.24;100.00
52441;BME280;39611;46.062;8.950;2022-09-09T06:13:41;96232.81;;;16.25;100.00
52441;BME280;39611;46.062;8.950;2022-09-09T06:16:13;96236.59;;;16.24;100.00
52441;BME280;39611;46.062;8.950;2022-09-09T06:18:41;96239.22;;;16.15;100.00
52441;BME280;39611;46.062;8.950;2022-09-09T06:21:15;96238.78;;;16.22;100.00
52441;BME280;39611;46.062;8.950;2022-09-09T06:23:42;96243.16;;;16.18;100.00
52441;BME280;39611;46.062;8.950;2022-09-09T06:26:16;96237.34;;;15.99;100.00
52441;BME280;39611;46.062;8.950;2022-09-09T06:28:47;96227.94;;;16.10;100.00
52441;BME280;39611;46.062;8.950;2022-09-09T06:31:16;96229.97;;;16.13;100.00
52441;BME280;39611;46.062;8.950;2022-09-09T06:33:43;96224.16;;;16.02;100.00
52441;BME280;39611;46.062;8.950;2022-09-09T06:36:12;96222.75;;;16.22;100.00
52441;BME280;39611;46.062;8.950;2022-09-09T06:38:39;96228.41;;;16.29;100.00
52441;BME280;39611;46.062;8.950;2022-09-09T06:41:05;96233.13;;;16.32;100.00
52441;BME280;39611;46.062;8.950;2022-09-09T06:43:32;96221.81;;;16.35;100.00
52441;BME280;39611;46.062;8.950;2022-09-09T06:46:11;96225.72;;;16.47;100.00
52441;BME280;39611;46.062;8.950;2022-09-09T06:48:41;96224.75;;;16.51;100.00
52441;BME280;39611;46.062;8.950;2022-09-09T06:51:12;96230.09;;;16.60;100.00
52441;BME280;39611;46.062;8.950;2022-09-09T06:53:41;96224.88;;;16.72;100.00
52441;BME280;39611;46.062;8.950;2022-09-09T06:58:43;96233.97;;;16.89;100.00
52441;BME280;39611;46.062;8.950;2022-09-09T07:01:23;96229.28;;;16.86;100.00
52441;BME280;39611;46.062;8.950;2022-09-09T07:03:52;96228.31;;;16.90;100.00
52441;BME280;39611;46.062;8.950;2022-09-09T07:06:22;96231.94;;;16.94;100.00
52441;BME280;39611;46.062;8.950;2022-09-09T07:08:54;96222.31;;;17.02;100.00
52441;BME280;39611;46.062;8.950;2022-09-09T07:11:24;96218.19;;;17.13;100.00
52441;BME280;39611;46.062;8.950;2022-09-09T07:13:52;96219.25;;;17.21;100.00
52441;BME280;39611;46.062;8.950;2022-09-09T07:16:20;96219.03;;;17.35;100.00
52441;BME280;39611;46.062;8.950;2022-09-09T07:18:46;96206.44;;;17.65;100.00
52441;BME280;39611;46.062;8.950;2022-09-09T07:21:14;96218.69;;;18.17;100.00
52441;BME280;39611;46.062;8.950;2022-09-09T07:23:41;96211.69;;;18.58;100.00
52441;BME280;39611;46.062;8.950;2022-09-09T07:26:12;96215.59;;;18.81;100.00
52441;BME280;39611;46.062;8.950;2022-09-09T07:28:40;96216.16;;;18.87;100.00
52441;BME280;39611;46.062;8.950;2022-09-09T07:31:13;96210.22;;;18.81;100.00
52441;BME280;39611;46.062;8.950;2022-09-09T07:33:42;96206.72;;;18.81;100.00
52441;BME280;39611;46.062;8.950;2022-09-09T07:36:16;96213.34;;;18.95;100.00
52441;BME280;39611;46.062;8.950;2022-09-09T07:38:48;96219.34;;;18.80;100.00
52441;BME280;39611;46.062;8.950;2022-09-09T07:41:21;96216.59;;;18.89;100.00
52441;BME280;39611;46.062;8.950;2022-09-09T07:43:49;96218.38;;;18.85;100.00
52441;BME280;39611;46.062;8.950;2022-09-09T07:46:18;96225.78;;;18.67;100.00
52441;BME280;39611;46.062;8.950;2022-09-09T07:48:54;96216.41;;;18.73;100.00
52441;BME280;39611;46.062;8.950;2022-09-09T07:51:26;96219.06;;;18.61;100.00
52441;BME280;39611;46.062;8.950;2022-09-09T07:53:58;96220.88;;;18.69;100.00
52441;BME280;39611;46.062;8.950;2022-09-09T07:56:25;96213.72;;;18.73;100.00
52441;BME280;39611;46.062;8.950;2022-09-09T07:58:54;96216.22;;;18.78;100.00
52441;BME280;39611;46.062;8.950;2022-09-09T08:01:24;96216.69;;;18.80;100.00
52441;BME280;39611;46.062;8.950;2022-09-09T08:03:59;96217.06;;;18.70;100.00
52441;BME280;39611;46.062;8.950;2022-09-09T08:06:29;96215.50;;;18.69;100.00
52441;BME280;39611;46.062;8.950;2022-09-09T08:08:56;96220.09;;;18.68;100.00
52441;BME280;39611;46.062;8.950;2022-09-09T08:11:25;96224.69;;;18.68;100.00
52441;BME280;39611;46.062;8.950;2022-09-09T08:13:52;96230.28;;;18.75;97.29
52441;BME280;39611;46.062;8.950;2022-09-09T08:16:27;96232.22;;;18.87;100.00
52441;BME280;39611;46.062;8.950;2022-09-09T08:18:54;96221.75;;;18.94;100.00
52441;BME280;39611;46.062;8.950;2022-09-09T08:21:23;96218.25;;;18.93;100.00
52441;BME280;39611;46.062;8.950;2022-09-09T08:23:52;96220.72;;;18.98;100.00
52441;BME280;39611;46.062;8.950;2022-09-09T08:26:26;96220.72;;;18.98;100.00
52441;BME280;39611;46.062;8.950;2022-09-09T08:28:54;96219.50;;;18.96;100.00
52441;BME280;39611;46.062;8.950;2022-09-09T08:31:27;96221.97;;;19.01;100.00
52441;BME280;39611;46.062;8.950;2022-09-09T08:33:55;96221.31;;;19.04;100.00
52441;BME280;39611;46.062;8.950;2022-09-09T08:36:24;96223.09;;;19.00;100.00
52441;BME280;39611;46.062;8.950;2022-09-09T08:38:54;96223.31;;;19.07;98.51
52441;BME280;39611;46.062;8.950;2022-09-09T08:50:22;96224.88;;;19.08;99.85
52441;BME280;39611;46.062;8.950;2022-09-09T08:55:45;96221.75;;;19.18;96.06
52441;BME280;39611;46.062;8.950;2022-09-09T08:58:20;96218.88;;;19.24;99.18
52441;BME280;39611;46.062;8.950;2022-09-09T09:03:30;96224.22;;;19.24;97.44
52441;BME280;39611;46.062;8.950;2022-09-09T09:11:19;96231.72;;;19.30;99.37
52441;BME280;39611;46.062;8.950;2022-09-09T09:19:17;96217.75;;;19.49;100.00
52441;BME280;39611;46.062;8.950;2022-09-09T09:27:59;96223.97;;;19.65;93.69
52441;BME280;39611;46.062;8.950;2022-09-09T09:30:34;96221.56;;;19.73;93.58
52441;BME280;39611;46.062;8.950;2022-09-09T09:33:06;96221.47;;;19.69;96.21
52441;BME280;39611;46.062;8.950;2022-09-09T09:35:38;96224.13;;;19.69;98.94
52441;BME280;39611;46.062;8.950;2022-09-09T09:41:03;96212.19;;;19.67;91.58
52441;BME280;39611;46.062;8.950;2022-09-09T09:43:34;96208.13;;;19.73;97.01
52441;BME280;39611;46.062;8.950;2022-09-09T09:46:04;96221.22;;;19.74;95.02
52441;BME280;39611;46.062;8.950;2022-09-09T09:48:43;96218.97;;;19.76;99.23
52441;BME280;39611;46.062;8.950;2022-09-09T09:51:13;96214.50;;;19.80;100.00
52441;BME280;39611;46.062;8.950;2022-09-09T09:53:43;96210.34;;;19.83;96.78
52441;BME280;39611;46.062;8.950;2022-09-09T09:56:11;96207.66;;;19.83;95.19
52441;BME280;39611;46.062;8.950;2022-09-09T10:01:20;96206.22;;;19.85;91.29
52441;BME280;39611;46.062;8.950;2022-09-09T10:03:52;96208.75;;;19.94;86.06
52441;BME280;39611;46.062;8.950;2022-09-09T10:06:30;96210.25;;;20.20;76.31
52441;BME280;39611;46.062;8.950;2022-09-09T10:08:57;96210.94;;;20.17;81.85
52441;BME280;39611;46.062;8.950;2022-09-09T10:14:16;96201.16;;;19.96;85.19
52441;BME280;39611;46.062;8.950;2022-09-09T10:19:36;96201.22;;;20.40;83.09
52441;BME280;39611;46.062;8.950;2022-09-09T10:25:43;96194.91;;;20.20;88.28
52441;BME280;39611;46.062;8.950;2022-09-09T10:30:54;96191.66;;;20.55;79.38
52441;BME280;39611;46.062;8.950;2022-09-09T10:33:48;96193.25;;;20.44;83.33
52441;BME280;39611;46.062;8.950;2022-09-09T10:36:21;96189.94;;;20.35;88.33
52441;BME280;39611;46.062;8.950;2022-09-09T10:39:15;96184.72;;;20.54;79.99
52441;BME280;39611;46.062;8.950;2022-09-09T10:42:05;96183.09;;;20.65;77.76
52441;BME280;39611;46.062;8.950;2022-09-09T10:55:24;96179.47;;;20.73;82.16
52441;BME280;39611;46.062;8.950;2022-09-09T10:57:58;96192.72;;;20.82;82.99
52441;BME280;39611;46.062;8.950;2022-09-09T11:00:31;96180.94;;;20.71;86.31
52441;BME280;39611;46.062;8.950;2022-09-09T11:03:03;96180.31;;;20.78;82.24
52441;BME280;39611;46.062;8.950;2022-09-09T11:05:41;96178.25;;;20.71;87.18
52441;BME280;39611;46.062;8.950;2022-09-09T11:08:19;96177.13;;;20.88;82.63
52441;BME280;39611;46.062;8.950;2022-09-09T11:11:12;96178.59;;;20.85;84.18
52441;BME280;39611;46.062;8.950;2022-09-09T11:18:47;96170.38;;;20.78;83.63
52441;BME280;39611;46.062;8.950;2022-09-09T11:21:29;96166.09;;;20.93;80.88
52441;BME280;39611;46.062;8.950;2022-09-09T11:24:02;96158.47;;;20.95;83.67
52441;BME280;39611;46.062;8.950;2022-09-09T11:26:51;96158.41;;;20.91;85.62
52441;BME280;39611;46.062;8.950;2022-09-09T11:29:44;96162.81;;;20.84;87.97
52441;BME280;39611;46.062;8.950;2022-09-09T11:35:30;96158.91;;;20.81;88.42
52441;BME280;39611;46.062;8.950;2022-09-09T11:40:44;96156.41;;;20.88;85.96
52441;BME280;39611;46.062;8.950;2022-09-09T11:43:18;96158.72;;;21.22;79.25
52441;BME280;39611;46.062;8.950;2022-09-09T11:45:54;96158.84;;;21.09;83.24
52441;BME280;39611;46.062;8.950;2022-09-09T11:51:04;96158.38;;;21.23;78.71
52441;BME280;39611;46.062;8.950;2022-09-09T11:53:54;96152.22;;;21.38;75.13
52441;BME280;39611;46.062;8.950;2022-09-09T11:56:28;96157.34;;;21.28;80.09
52441;BME280;39611;46.062;8.950;2022-09-09T11:59:06;96157.13;;;21.36;79.10
52441;BME280;39611;46.062;8.950;2022-09-09T12:01:45;96147.63;;;21.23;82.19
52441;BME280;39611;46.062;8.950;2022-09-09T12:04:26;96145.81;;;21.11;84.58
52441;BME280;39611;46.062;8.950;2022-09-09T12:06:59;96155.88;;;21.14;82.41
52441;BME280;39611;46.062;8.950;2022-09-09T12:14:43;96139.75;;;21.14;83.72
52441;BME280;39611;46.062;8.950;2022-09-09T12:17:22;96133.13;;;21.28;78.48
52441;BME280;39611;46.062;8.950;2022-09-09T12:20:10;96137.59;;;21.55;75.54
52441;BME280;39611;46.062;8.950;2022-09-09T12:28:17;96125.00;;;21.59;75.52
52441;BME280;39611;46.062;8.950;2022-09-09T12:30:48;96120.59;;;21.51;76.31
52441;BME280;39611;46.062;8.950;2022-09-09T12:33:18;96116.59;;;21.61;77.90
52441;BME280;39611;46.062;8.950;2022-09-09T12:35:52;96115.44;;;21.62;78.99
52441;BME280;39611;46.062;8.950;2022-09-09T12:38:32;96113.41;;;21.75;74.76
52441;BME280;39611;46.062;8.950;2022-09-09T12:41:00;96109.84;;;21.90;68.57
52441;BME280;39611;46.062;8.950;2022-09-09T12:43:28;96111.97;;;21.81;69.18
52441;BME280;39611;46.062;8.950;2022-09-09T12:45:58;96118.28;;;21.89;72.30
52441;BME280;39611;46.062;8.950;2022-09-09T12:48:37;96108.28;;;21.89;73.00
52441;BME280;39611;46.062;8.950;2022-09-09T12:51:07;96117.44;;;21.85;76.73
52441;BME280;39611;46.062;8.950;2022-09-09T12:53:42;96115.25;;;21.90;72.79
52441;BME280;39611;46.062;8.950;2022-09-09T12:56:19;96111.25;;;21.84;76.38
52441;BME280;39611;46.062;8.950;2022-09-09T12:58:49;96111.53;;;21.79;76.79
52441;BME280;39611;46.062;8.950;2022-09-09T13:01:22;96107.59;;;21.92;74.71
52441;BME280;39611;46.062;8.950;2022-09-09T13:03:49;96101.91;;;21.78;71.18
52441;BME280;39611;46.062;8.950;2022-09-09T13:06:24;96098.44;;;21.58;77.26
52441;BME280;39611;46.062;8.950;2022-09-09T13:08:56;96107.13;;;22.10;70.71
52441;BME280;39611;46.062;8.950;2022-09-09T13:11:27;96089.94;;;21.95;72.20
52441;BME280;39611;46.062;8.950;2022-09-09T13:13:56;96091.16;;;21.78;76.36
52441;BME280;39611;46.062;8.950;2022-09-09T13:16:31;96091.84;;;21.75;77.98
52441;BME280;39611;46.062;8.950;2022-09-09T13:19:02;96087.25;;;21.95;71.56
52441;BME280;39611;46.062;8.950;2022-09-09T13:21:38;96084.34;;;21.84;74.78
52441;BME280;39611;46.062;8.950;2022-09-09T13:24:06;96087.91;;;21.69;76.53
52441;BME280;39611;46.062;8.950;2022-09-09T13:26:34;96077.81;;;21.66;79.39
52441;BME280;39611;46.062;8.950;2022-09-09T13:29:17;96083.78;;;21.75;78.94
52441;BME280;39611;46.062;8.950;2022-09-09T13:31:45;96081.88;;;21.75;80.54
52441;BME280;39611;46.062;8.950;2022-09-09T13:34:13;96077.91;;;21.69;80.51
52441;BME280;39611;46.062;8.950;2022-09-09T13:36:41;96074.06;;;21.70;82.49
52441;BME280;39611;46.062;8.950;2022-09-09T13:39:16;96077.97;;;21.73;80.75
52441;BME280;39611;46.062;8.950;2022-09-09T13:41:45;96079.22;;;21.98;76.79
52441;BME280;39611;46.062;8.950;2022-09-09T13:44:25;96079.03;;;21.88;82.58
52441;BME280;39611;46.062;8.950;2022-09-09T13:47:06;96076.97;;;21.81;79.33
52441;BME280;39611;46.062;8.950;2022-09-09T13:49:36;96071.97;;;21.79;79.01
52441;BME280;39611;46.062;8.950;2022-09-09T13:52:10;96071.16;;;21.79;77.78
52441;BME280;39611;46.062;8.950;2022-09-09T13:54:38;96068.91;;;21.81;77.20
52441;BME280;39611;46.062;8.950;2022-09-09T13:57:11;96065.13;;;21.86;75.77
52441;BME280;39611;46.062;8.950;2022-09-09T13:59:40;96055.72;;;21.76;80.60
52441;BME280;39611;46.062;8.950;2022-09-09T14:02:26;96056.72;;;21.87;70.53
52441;BME280;39611;46.062;8.950;2022-09-09T14:04:53;96062.78;;;21.84;75.90
52441;BME280;39611;46.062;8.950;2022-09-09T14:07:21;96061.38;;;21.90;75.19
52441;BME280;39611;46.062;8.950;2022-09-09T14:09:48;96052.31;;;21.98;68.74
52441;BME280;39611;46.062;8.950;2022-09-09T14:12:16;96049.41;;;21.88;74.52
52441;BME280;39611;46.062;8.950;2022-09-09T14:14:43;96052.44;;;21.86;76.34
52441;BME280;39611;46.062;8.950;2022-09-09T14:17:10;96049.00;;;21.86;75.94
52441;BME280;39611;46.062;8.950;2022-09-09T14:19:36;96053.41;;;21.74;77.68
52441;BME280;39611;46.062;8.950;2022-09-09T14:22:06;96049.34;;;21.65;78.29
52441;BME280;39611;46.062;8.950;2022-09-09T14:24:32;96057.38;;;21.61;77.18
52441;BME280;39611;46.062;8.950;2022-09-09T14:26:59;96056.06;;;21.55;79.92
52441;BME280;39611;46.062;8.950;2022-09-09T14:29:25;96061.28;;;21.64;76.64
52441;BME280;39611;46.062;8.950;2022-09-09T14:31:52;96062.88;;;21.49;77.52
52441;BME280;39611;46.062;8.950;2022-09-09T14:34:19;96056.44;;;21.37;79.71
52441;BME280;39611;46.062;8.950;2022-09-09T14:36:45;96061.63;;;21.27;80.69
52441;BME280;39611;46.062;8.950;2022-09-09T14:39:13;96053.03;;;21.21;82.36
52441;BME280;39611;46.062;8.950;2022-09-09T14:41:40;96054.91;;;21.17;80.88
52441;BME280;39611;46.062;8.950;2022-09-09T14:44:06;96057.50;;;21.13;84.14
52441;BME280;39611;46.062;8.950;2022-09-09T14:46:33;96052.97;;;21.17;82.99
52441;BME280;39611;46.062;8.950;2022-09-09T14:48:59;96059.34;;;21.29;79.41
52441;BME280;39611;46.062;8.950;2022-09-09T14:51:26;96057.28;;;21.38;78.27
52441;BME280;39611;46.062;8.950;2022-09-09T14:53:57;96061.84;;;21.37;80.63
52441;BME280;39611;46.062;8.950;2022-09-09T14:56:27;96055.16;;;21.47;79.31
52441;BME280;39611;46.062;8.950;2022-09-09T14:58:55;96054.59;;;21.38;84.13
52441;BME280;39611;46.062;8.950;2022-09-09T15:01:22;96050.06;;;21.26;84.01
52441;BME280;39611;46.062;8.950;2022-09-09T15:03:51;96058.16;;;21.26;82.90
52441;BME280;39611;46.062;8.950;2022-09-09T15:06:19;96055.63;;;21.33;82.11
52441;BME280;39611;46.062;8.950;2022-09-09T15:08:47;96058.06;;;21.38;82.43
52441;BME280;39611;46.062;8.950;2022-09-09T15:11:14;96051.78;;;21.34;82.41
52441;BME280;39611;46.062;8.950;2022-09-09T15:13:42;96055.13;;;21.28;81.90
52441;BME280;39611;46.062;8.950;2022-09-09T15:16:11;96055.13;;;21.28;82.90
52441;BME280;39611;46.062;8.950;2022-09-09T15:18:38;96053.97;;;21.29;85.37
52441;BME280;39611;46.062;8.950;2022-09-09T15:21:10;96059.84;;;21.15;86.67
52441;BME280;39611;46.062;8.950;2022-09-09T15:23:36;96056.66;;;21.09;86.99
52441;BME280;39611;46.062;8.950;2022-09-09T15:26:04;96055.84;;;21.09;85.91
52441;BME280;39611;46.062;8.950;2022-09-09T15:28:32;96049.84;;;21.15;87.04
52441;BME280;39611;46.062;8.950;2022-09-09T15:31:05;96043.75;;;21.19;84.66
52441;BME280;39611;46.062;8.950;2022-09-09T15:33:33;96052.34;;;21.24;83.40